createdAt,value
2017-07-29T00:01:25.816Z,67.83
2017-07-29T00:03:58.285Z,67.25
2017-07-29T00:06:30.692Z,67.71
2017-07-29T00:09:03.278Z,67.24
2017-07-29T00:11:35.619Z,67.41
2017-07-29T00:14:08.117Z,67.71
2017-07-29T00:16:40.550Z,68.18
2017-07-29T00:19:13.036Z,67.31
2017-07-29T00:21:45.354Z,67.34
2017-07-29T00:24:17.791Z,67.66
2017-07-29T00:26:50.170Z,67.92
2017-07-29T00:29:32.571Z,68.33
2017-07-29T00:32:05.144Z,68.92
2017-07-29T00:34:37.516Z,68.32
2017-07-29T00:37:09.874Z,69.08
2017-07-29T00:39:42.231Z,69.55
2017-07-29T00:42:14.548Z,68.70
2017-07-29T00:44:47.039Z,69.14
2017-07-29T00:47:19.466Z,69.26
2017-07-29T00:49:51.765Z,70.21
2017-07-29T00:52:24.110Z,70.42
2017-07-29T00:54:56.645Z,71.18
2017-07-29T00:57:28.939Z,70.73
2017-07-29T01:00:01.405Z,70.53
2017-07-29T01:02:33.886Z,70.34
2017-07-29T01:05:06.339Z,70.64
2017-07-29T01:07:38.783Z,70.17
2017-07-29T01:10:11.215Z,70.08
2017-07-29T01:12:43.751Z,70.25
2017-07-29T01:15:16.047Z,69.74
2017-07-29T01:17:48.406Z,69.93
2017-07-29T01:20:20.867Z,70.38
2017-07-29T01:22:53.147Z,71.27
2017-07-29T01:25:25.540Z,71.08
2017-07-29T01:27:58.004Z,71.00
2017-07-29T01:30:30.504Z,72.25
2017-07-29T01:33:02.851Z,71.92
2017-07-29T01:35:35.276Z,72.81
2017-07-29T01:38:07.603Z,72.27
2017-07-29T01:40:40.212Z,72.58
2017-07-29T01:43:12.727Z,72.98
2017-07-29T01:45:45.244Z,74.07
2017-07-29T01:48:17.611Z,74.53
2017-07-29T01:50:50.184Z,74.19
2017-07-29T01:53:22.658Z,74.16
2017-07-29T01:55:55.030Z,74.16
2017-07-29T01:58:27.391Z,74.45
2017-07-29T02:01:00.039Z,75.08
2017-07-29T02:03:32.433Z,75.00
2017-07-29T02:06:04.838Z,74.25
2017-07-29T02:08:37.307Z,74.18
2017-07-29T02:11:09.682Z,74.42
2017-07-29T02:13:42.056Z,73.86
2017-07-29T02:16:14.427Z,74.92
2017-07-29T02:18:46.962Z,75.50
2017-07-29T02:21:19.282Z,75.79
2017-07-29T02:23:51.635Z,76.00
2017-07-29T02:26:23.998Z,75.91
2017-07-29T02:28:56.371Z,76.05
2017-07-29T02:31:28.854Z,75.56
2017-07-29T02:34:01.310Z,75.22
2017-07-29T02:36:33.710Z,75.99
2017-07-29T02:39:06.083Z,75.43
2017-07-29T02:41:38.571Z,75.66
2017-07-29T02:44:11.175Z,75.92
2017-07-29T02:46:43.527Z,75.97
2017-07-29T02:49:15.876Z,75.97
2017-07-29T02:51:48.392Z,76.05
2017-07-29T02:54:20.707Z,75.96
2017-07-29T02:56:53.027Z,75.61
2017-07-29T02:59:25.363Z,75.47
2017-07-29T03:01:57.974Z,76.15
2017-07-29T03:04:30.371Z,76.52
2017-07-29T03:07:02.879Z,75.17
2017-07-29T03:09:35.276Z,75.00
2017-07-29T03:12:07.905Z,75.51
2017-07-29T03:14:40.300Z,76.01
2017-07-29T03:17:12.722Z,76.22
2017-07-29T03:19:45.158Z,76.06
2017-07-29T03:22:17.565Z,75.15
2017-07-29T03:24:49.924Z,75.81
2017-07-29T03:27:22.419Z,75.79
2017-07-29T03:29:54.882Z,75.55
2017-07-29T03:32:27.210Z,75.43
2017-07-29T03:34:59.670Z,75.66
2017-07-29T03:37:32.106Z,75.46
2017-07-29T03:40:04.496Z,75.44
2017-07-29T03:42:36.974Z,75.78
2017-07-29T03:45:09.428Z,75.89
2017-07-29T03:47:41.784Z,75.46
2017-07-29T03:50:14.282Z,75.47
2017-07-29T03:52:46.671Z,75.55
2017-07-29T03:55:19.083Z,75.14
2017-07-29T03:57:51.418Z,75.10
2017-07-29T04:00:23.666Z,74.89
2017-07-29T04:02:56.162Z,74.37
2017-07-29T04:05:28.623Z,73.25
2017-07-29T04:08:01.131Z,73.45
2017-07-29T04:10:33.570Z,73.72
2017-07-29T04:13:06.076Z,73.17
2017-07-29T04:15:38.477Z,72.04
2017-07-29T04:18:10.910Z,72.87
2017-07-29T04:20:43.462Z,72.06
2017-07-29T04:23:15.885Z,72.39
2017-07-29T04:25:48.215Z,71.46
2017-07-29T04:28:20.751Z,70.88
2017-07-29T04:30:53.020Z,71.02
2017-07-29T04:33:25.464Z,70.88
2017-07-29T04:35:57.938Z,71.03
2017-07-29T04:38:30.419Z,70.67
2017-07-29T04:41:02.991Z,70.29
2017-07-29T04:43:35.551Z,70.02
2017-07-29T04:46:07.956Z,69.82
2017-07-29T04:48:40.423Z,70.01
2017-07-29T04:51:12.863Z,69.72
2017-07-29T04:53:45.348Z,69.31
2017-07-29T04:56:17.739Z,69.59
2017-07-29T04:58:50.110Z,69.63
2017-07-29T05:01:22.603Z,69.21
2017-07-29T05:03:55.011Z,69.25
2017-07-29T05:06:27.315Z,69.55
2017-07-29T05:08:59.713Z,70.33
2017-07-29T05:11:32.100Z,69.32
2017-07-29T05:14:04.408Z,70.67
2017-07-29T05:16:36.808Z,69.82
2017-07-29T05:19:09.415Z,69.60
2017-07-29T05:21:41.855Z,69.06
2017-07-29T05:24:14.374Z,68.64
2017-07-29T05:26:46.706Z,68.93
2017-07-29T05:29:19.205Z,68.46
2017-07-29T05:31:51.555Z,68.72
2017-07-29T05:34:23.938Z,68.36
2017-07-29T05:36:56.387Z,67.81
2017-07-29T05:39:28.691Z,68.37
2017-07-29T05:42:01.131Z,67.99
2017-07-29T05:44:33.414Z,67.84
2017-07-29T05:47:05.867Z,68.29
2017-07-29T05:49:38.298Z,67.40
2017-07-29T05:52:10.752Z,68.16
2017-07-29T05:54:43.155Z,68.27
2017-07-29T05:57:15.510Z,67.71
2017-07-29T05:59:47.854Z,67.36
2017-07-29T06:02:20.241Z,67.67
2017-07-29T06:04:52.687Z,68.07
2017-07-29T06:07:25.111Z,68.41
2017-07-29T06:09:57.454Z,68.22
2017-07-29T06:12:29.870Z,68.27
2017-07-29T06:15:02.234Z,68.03
2017-07-29T06:17:34.585Z,67.48
2017-07-29T06:20:06.988Z,66.53
2017-07-29T06:22:39.352Z,66.48
2017-07-29T06:25:11.811Z,66.87
2017-07-29T06:27:44.243Z,66.78
2017-07-29T06:30:16.682Z,66.78
2017-07-29T06:32:49.110Z,66.67
2017-07-29T06:35:21.615Z,66.33
2017-07-29T06:37:53.974Z,65.62
2017-07-29T06:40:26.488Z,65.49
2017-07-29T06:42:58.857Z,65.76
2017-07-29T06:45:31.345Z,65.64
2017-07-29T06:48:04.078Z,65.20
2017-07-29T06:50:36.188Z,64.10
2017-07-29T06:53:08.643Z,64.44
2017-07-29T06:55:41.076Z,64.54
2017-07-29T06:58:13.487Z,63.11
2017-07-29T07:00:45.988Z,62.88
2017-07-29T07:03:18.343Z,62.96
2017-07-29T07:05:50.710Z,62.42
2017-07-29T07:08:23.203Z,61.42
2017-07-29T07:10:55.595Z,62.41
2017-07-29T07:13:28.007Z,62.32
2017-07-29T07:16:00.375Z,62.67
2017-07-29T07:18:32.720Z,61.80
2017-07-29T07:21:05.115Z,61.45
2017-07-29T07:23:37.557Z,62.26
2017-07-29T07:26:09.932Z,63.14
2017-07-29T07:28:42.187Z,62.73
2017-07-29T07:31:14.573Z,62.21
2017-07-29T07:33:47.006Z,62.03
2017-07-29T07:36:19.479Z,61.68
2017-07-29T07:38:51.928Z,60.71
2017-07-29T07:41:24.411Z,60.57
2017-07-29T07:43:56.767Z,61.03
2017-07-29T07:46:29.255Z,61.10
2017-07-29T07:49:01.594Z,60.94
2017-07-29T07:51:33.962Z,60.50
2017-07-29T07:54:06.283Z,60.51
2017-07-29T07:56:38.664Z,60.28
2017-07-29T07:59:11.059Z,59.27
2017-07-29T08:01:43.571Z,59.22
2017-07-29T08:04:16.039Z,59.96
2017-07-29T08:06:48.506Z,59.17
2017-07-29T08:09:21.091Z,58.46
2017-07-29T08:11:53.547Z,59.21
2017-07-29T08:14:25.964Z,59.56
2017-07-29T08:16:58.334Z,59.72
2017-07-29T08:19:30.661Z,59.86
2017-07-29T08:22:03.049Z,59.24
2017-07-29T08:24:35.427Z,59.66
2017-07-29T08:27:07.781Z,59.86
2017-07-29T08:29:40.158Z,59.17
2017-07-29T08:32:12.346Z,59.45
2017-07-29T08:34:44.708Z,60.31
2017-07-29T08:37:17.036Z,59.88
2017-07-29T08:39:49.391Z,59.83
2017-07-29T08:42:22.228Z,59.52
2017-07-29T08:44:54.223Z,59.03
2017-07-29T08:47:26.672Z,59.83
2017-07-29T08:49:58.925Z,59.46
2017-07-29T08:52:31.407Z,58.88
2017-07-29T08:55:03.891Z,59.42
2017-07-29T08:57:36.298Z,59.58
2017-07-29T09:00:08.740Z,59.25
2017-07-29T09:02:41.140Z,59.21
2017-07-29T09:05:13.629Z,59.07
2017-07-29T09:07:46.012Z,59.34
2017-07-29T09:10:18.467Z,59.87
2017-07-29T09:12:50.951Z,59.58
2017-07-29T09:15:23.495Z,59.53
2017-07-29T09:17:55.886Z,59.28
2017-07-29T09:20:28.232Z,59.56
2017-07-29T09:23:00.641Z,59.11
2017-07-29T09:25:33.003Z,59.41
2017-07-29T09:28:05.354Z,59.34
2017-07-29T09:30:37.845Z,59.78
2017-07-29T09:33:10.248Z,60.22
2017-07-29T09:35:42.648Z,59.96
2017-07-29T09:38:14.944Z,60.71
2017-07-29T09:40:47.258Z,60.17
2017-07-29T09:43:19.792Z,60.28
2017-07-29T09:45:52.095Z,59.87
2017-07-29T09:48:24.515Z,60.01
2017-07-29T09:50:56.998Z,60.92
2017-07-29T09:53:29.352Z,60.51
2017-07-29T09:56:01.718Z,60.33
2017-07-29T09:58:34.166Z,60.23
2017-07-29T10:01:06.666Z,60.32
2017-07-29T10:03:39.145Z,59.97
2017-07-29T10:06:11.458Z,60.06
2017-07-29T10:08:43.838Z,59.64
2017-07-29T10:11:16.304Z,58.89
2017-07-29T10:13:48.659Z,59.74
2017-07-29T10:16:21.183Z,60.27
2017-07-29T10:18:53.764Z,60.44
2017-07-29T10:21:25.927Z,59.87
2017-07-29T10:24:05.448Z,59.57
2017-07-29T10:26:37.855Z,59.87
2017-07-29T10:29:10.326Z,59.99
2017-07-29T10:31:42.695Z,60.31
2017-07-29T10:34:15.032Z,58.30
2017-07-29T10:36:47.362Z,58.75
2017-07-29T10:39:19.736Z,58.40
2017-07-29T10:41:52.078Z,59.09
2017-07-29T10:44:24.551Z,57.66
2017-07-29T10:46:56.939Z,57.21
2017-07-29T10:49:29.278Z,57.35
2017-07-29T10:52:01.683Z,56.86
2017-07-29T10:54:33.972Z,55.84
2017-07-29T10:57:06.274Z,56.82
2017-07-29T10:59:38.624Z,56.83
2017-07-29T11:02:10.858Z,55.28
2017-07-29T11:04:43.215Z,55.83
2017-07-29T11:07:15.444Z,54.67
2017-07-29T11:09:47.906Z,54.45
2017-07-29T11:12:20.308Z,53.92
2017-07-29T11:14:52.634Z,55.00
2017-07-29T11:17:25.003Z,54.15
2017-07-29T11:19:57.479Z,53.15
2017-07-29T11:22:29.863Z,53.78
2017-07-29T11:25:02.076Z,54.64
2017-07-29T11:27:34.495Z,54.66
2017-07-29T11:30:06.932Z,55.27
2017-07-29T11:32:39.266Z,55.79
2017-07-29T11:35:11.638Z,56.01
2017-07-29T11:37:44.160Z,56.92
2017-07-29T11:40:16.550Z,55.97
2017-07-29T11:42:48.995Z,54.93
2017-07-29T11:45:21.331Z,55.68
2017-07-29T11:47:53.776Z,54.15
2017-07-29T11:50:26.115Z,54.51
2017-07-29T11:52:58.540Z,54.47
2017-07-29T11:55:30.717Z,52.79
2017-07-29T11:58:03.059Z,52.56
2017-07-29T12:00:35.506Z,54.52
2017-07-29T12:03:07.926Z,54.89
2017-07-29T12:05:40.370Z,55.67
2017-07-29T12:08:12.931Z,55.38
2017-07-29T12:10:45.255Z,54.90
2017-07-29T12:13:17.454Z,54.52
2017-07-29T12:15:49.883Z,55.32
2017-07-29T12:18:22.270Z,54.27
2017-07-29T12:20:54.676Z,55.07
2017-07-29T12:23:27.006Z,54.93
2017-07-29T12:25:59.500Z,55.44
2017-07-29T12:28:31.859Z,54.16
2017-07-29T12:31:04.142Z,55.62
2017-07-29T12:33:36.622Z,55.29
2017-07-29T12:36:08.927Z,54.54
2017-07-29T12:38:41.351Z,53.80
2017-07-29T12:41:13.655Z,54.21
2017-07-29T12:43:46.006Z,54.17
2017-07-29T12:46:18.481Z,54.46
2017-07-29T12:48:50.811Z,55.39
2017-07-29T12:51:23.053Z,55.25
2017-07-29T12:53:55.537Z,55.90
2017-07-29T12:56:27.980Z,55.65
2017-07-29T12:59:00.509Z,55.48
2017-07-29T13:01:32.926Z,54.83
2017-07-29T13:04:05.369Z,56.00
2017-07-29T13:06:37.805Z,55.77
2017-07-29T13:09:10.251Z,54.75
2017-07-29T13:11:42.607Z,55.59
2017-07-29T13:14:15.061Z,55.25
2017-07-29T13:16:47.251Z,54.81
2017-07-29T13:19:19.659Z,55.37
2017-07-29T13:21:51.909Z,55.34
2017-07-29T13:24:24.372Z,55.84
2017-07-29T13:26:56.762Z,55.71
2017-07-29T13:29:29.074Z,54.87
2017-07-29T13:32:01.520Z,56.42
2017-07-29T13:34:33.826Z,56.52
2017-07-29T13:50:02.690Z,56.71
2017-07-29T13:52:34.551Z,57.94
2017-07-29T13:55:07.011Z,57.77
2017-07-29T13:57:39.346Z,58.11
2017-07-29T14:00:11.877Z,58.35
2017-07-29T14:02:44.317Z,59.45
2017-07-29T14:05:16.634Z,59.54
2017-07-29T14:07:49.122Z,59.28
2017-07-29T14:10:21.678Z,58.58
2017-07-29T14:12:54.019Z,59.10
2017-07-29T14:15:26.432Z,58.69
2017-07-29T14:17:58.771Z,58.25
2017-07-29T14:20:31.276Z,57.95
2017-07-29T14:23:03.738Z,58.34
2017-07-29T14:25:36.045Z,58.39
2017-07-29T14:28:08.362Z,58.18
2017-07-29T14:30:40.779Z,58.48
2017-07-29T14:33:13.154Z,57.49
2017-07-29T14:35:45.596Z,58.30
2017-07-29T14:38:18.135Z,58.09
2017-07-29T14:40:50.468Z,58.44
2017-07-29T14:43:22.866Z,58.39
2017-07-29T14:45:55.279Z,58.81
2017-07-29T14:48:34.751Z,58.08
2017-07-29T14:51:07.327Z,57.91
2017-07-29T14:53:39.790Z,57.87
2017-07-29T14:56:12.196Z,57.47
2017-07-29T14:58:44.530Z,57.66
2017-07-29T15:01:16.736Z,56.22
2017-07-29T15:03:49.079Z,57.21
2017-07-29T15:06:21.580Z,56.94
2017-07-29T15:08:53.923Z,56.28
2017-07-29T15:11:26.455Z,56.72
2017-07-29T15:13:58.680Z,55.90
2017-07-29T15:16:31.162Z,56.34
2017-07-29T15:19:03.589Z,56.12
2017-07-29T15:21:36.129Z,56.34
2017-07-29T15:24:08.568Z,56.63
2017-07-29T15:26:40.850Z,56.91
2017-07-29T15:29:13.314Z,56.63
2017-07-29T15:31:45.655Z,56.50
2017-07-29T15:34:17.980Z,55.94
2017-07-29T15:36:50.357Z,56.36
2017-07-29T15:39:22.802Z,56.22
2017-07-29T15:41:55.290Z,56.26
2017-07-29T15:44:27.542Z,56.20
2017-07-29T15:46:59.980Z,55.49
2017-07-29T15:49:32.321Z,55.75
2017-07-29T15:52:04.682Z,55.86
2017-07-29T15:54:36.995Z,56.18
2017-07-29T15:57:09.260Z,56.25
2017-07-29T15:59:41.487Z,55.70
2017-07-29T16:02:13.778Z,56.32
2017-07-29T16:04:46.148Z,55.77
2017-07-29T16:07:18.408Z,56.34
2017-07-29T16:09:50.782Z,55.65
2017-07-29T16:12:23.161Z,56.72
2017-07-29T16:14:55.566Z,56.52
2017-07-29T16:17:28.131Z,56.25
2017-07-29T16:20:00.119Z,56.31
2017-07-29T16:22:32.383Z,56.32
2017-07-29T16:25:04.866Z,56.14
2017-07-29T16:27:37.340Z,55.74
2017-07-29T16:30:09.767Z,55.26
2017-07-29T16:32:42.159Z,55.84
2017-07-29T16:35:14.342Z,55.37
2017-07-29T16:37:46.798Z,55.62
2017-07-29T16:40:19.250Z,56.12
2017-07-29T16:42:51.649Z,56.04
2017-07-29T16:45:23.972Z,55.96
2017-07-29T16:47:56.366Z,55.64
2017-07-29T16:50:28.748Z,55.74
2017-07-29T16:53:01.219Z,56.29
2017-07-29T16:55:33.599Z,55.07
2017-07-29T16:58:05.974Z,55.38
2017-07-29T17:00:38.383Z,55.73
2017-07-29T17:03:10.730Z,55.81
2017-07-29T17:05:43.191Z,56.11
2017-07-29T17:08:15.512Z,55.99
2017-07-29T17:10:47.939Z,55.99
2017-07-29T17:13:20.440Z,56.98
2017-07-29T17:15:52.779Z,57.03
2017-07-29T17:18:25.179Z,56.62
2017-07-29T17:20:57.502Z,57.03
2017-07-29T17:23:29.943Z,56.94
2017-07-29T17:26:02.182Z,57.05
2017-07-29T17:28:34.673Z,57.18
2017-07-29T17:31:07.141Z,56.66
2017-07-29T17:33:39.527Z,56.90
2017-07-29T17:36:11.891Z,56.98
2017-07-29T17:38:44.279Z,56.91
2017-07-29T17:41:16.667Z,57.14
2017-07-29T17:43:49.006Z,57.25
2017-07-29T17:46:21.455Z,57.10
2017-07-29T17:48:54.807Z,57.13
2017-07-29T17:51:27.159Z,56.56
2017-07-29T17:53:59.521Z,56.84
2017-07-29T17:56:31.995Z,56.63
2017-07-29T17:59:04.342Z,56.84
2017-07-29T18:01:36.638Z,57.21
2017-07-29T18:04:09.149Z,57.16
2017-07-29T18:06:41.582Z,57.12
2017-07-29T18:09:13.959Z,57.13
2017-07-29T18:11:46.271Z,57.02
2017-07-29T18:14:18.731Z,57.36
2017-07-29T18:16:51.059Z,56.63
2017-07-29T18:19:23.571Z,56.50
2017-07-29T18:21:55.922Z,56.71
2017-07-29T18:24:28.307Z,56.86
2017-07-29T18:27:00.660Z,57.19
2017-07-29T18:29:33.142Z,57.49
2017-07-29T18:32:05.748Z,57.55
2017-07-29T18:34:38.023Z,57.63
2017-07-29T18:37:10.374Z,58.25
2017-07-29T18:39:42.759Z,58.57
2017-07-29T18:42:15.207Z,58.61
2017-07-29T18:44:47.705Z,58.91
2017-07-29T18:47:20.020Z,59.36
2017-07-29T18:49:52.327Z,60.00
2017-07-29T18:52:24.619Z,60.24
2017-07-29T18:54:56.899Z,60.94
2017-07-29T18:57:29.244Z,60.78
2017-07-29T19:00:01.668Z,60.89
2017-07-29T19:02:33.936Z,61.14
2017-07-29T19:05:06.314Z,61.37
2017-07-29T19:07:38.766Z,61.71
2017-07-29T19:10:11.317Z,61.97
2017-07-29T19:12:43.527Z,62.11
2017-07-29T19:15:15.910Z,62.31
2017-07-29T19:17:48.498Z,62.21
2017-07-29T19:20:20.730Z,62.26
2017-07-29T19:22:53.018Z,62.26
2017-07-29T19:25:25.484Z,62.54
2017-07-29T19:27:57.867Z,62.81
2017-07-29T19:30:30.303Z,63.28
2017-07-29T19:33:02.591Z,63.21
2017-07-29T19:35:34.962Z,63.20
2017-07-29T19:38:07.384Z,63.27
2017-07-29T19:40:39.735Z,63.70
2017-07-29T19:45:51.727Z,64.56
2017-07-29T19:48:24.208Z,65.75
2017-07-29T19:50:56.599Z,66.16
2017-07-29T19:53:28.963Z,67.31
2017-07-29T19:56:01.457Z,67.64
2017-07-29T19:58:33.804Z,67.25
2017-07-29T20:01:06.282Z,67.26
2017-07-29T20:03:38.754Z,67.51
2017-07-29T20:06:11.283Z,67.48
2017-07-29T20:08:43.667Z,67.54
2017-07-29T20:11:16.193Z,67.66
2017-07-29T20:13:48.598Z,67.60
2017-07-29T20:16:20.987Z,67.34
2017-07-29T20:18:53.490Z,67.24
2017-07-29T20:21:25.798Z,67.30
2017-07-29T20:23:58.378Z,67.29
2017-07-29T20:26:30.932Z,67.40
2017-07-29T20:29:03.222Z,67.53
2017-07-29T20:31:35.799Z,67.53
2017-07-29T20:34:08.047Z,67.66
2017-07-29T20:36:40.427Z,67.77
2017-07-29T20:39:12.808Z,67.80
2017-07-29T20:41:45.211Z,67.77
2017-07-29T20:44:17.710Z,67.59
2017-07-29T20:46:50.245Z,67.42
2017-07-29T20:49:22.599Z,67.39
2017-07-29T20:51:54.930Z,67.46
2017-07-29T20:54:26.831Z,67.62
2017-07-29T20:56:59.323Z,67.63
2017-07-29T20:59:31.669Z,67.89
2017-07-29T21:02:04.158Z,68.10
2017-07-29T21:04:36.423Z,67.93
2017-07-29T21:07:09.121Z,67.92
2017-07-29T21:09:41.483Z,67.85
2017-07-29T21:12:13.947Z,68.05
2017-07-29T21:17:08.466Z,68.28
2017-07-29T21:19:40.646Z,100.00
2017-07-29T21:23:45.994Z,67.72
2017-07-29T21:26:18.139Z,67.60
2017-07-29T21:30:02.931Z,67.34
2017-07-29T21:32:34.947Z,67.13
2017-07-29T21:35:07.709Z,67.22
2017-07-29T21:37:42.715Z,67.18
2017-07-29T21:40:17.202Z,67.26
2017-07-29T21:42:52.197Z,67.26
2017-07-29T21:45:26.759Z,67.51
2017-07-29T21:48:01.864Z,67.59
2017-07-29T21:50:36.611Z,67.98
2017-07-29T21:53:12.352Z,68.57
2017-07-29T21:55:47.043Z,69.04
2017-07-29T21:58:21.814Z,69.31
2017-07-29T22:00:56.583Z,69.04
2017-07-29T22:03:31.290Z,69.39
2017-07-29T22:06:06.401Z,69.85
2017-07-29T22:08:41.074Z,69.71
2017-07-29T22:11:16.056Z,69.43
2017-07-29T22:13:50.815Z,69.27
2017-07-29T22:16:26.563Z,69.43
2017-07-29T22:19:01.167Z,69.52
2017-07-29T22:21:36.017Z,69.36
2017-07-29T22:24:10.723Z,69.15
2017-07-29T22:26:45.434Z,68.81
2017-07-29T22:29:21.127Z,68.67
2017-07-29T22:31:55.890Z,68.93
2017-07-29T22:34:31.663Z,69.04
2017-07-29T22:37:06.327Z,68.99
2017-07-29T22:39:41.018Z,68.78
2017-07-29T22:42:15.775Z,69.08
2017-07-29T22:44:50.194Z,68.72
2017-07-29T22:47:24.933Z,68.87
2017-07-29T22:49:59.454Z,68.73
2017-07-29T22:52:34.071Z,68.49
2017-07-29T22:55:08.612Z,69.06
2017-07-29T22:57:43.143Z,69.32
2017-07-29T23:00:17.172Z,70.18
2017-07-29T23:02:52.294Z,70.00
2017-07-29T23:05:26.720Z,70.49
2017-07-29T23:08:01.651Z,70.20
2017-07-29T23:10:36.349Z,70.66
2017-07-29T23:13:11.083Z,71.15
2017-07-29T23:15:45.596Z,71.06
2017-07-29T23:18:20.338Z,71.89
2017-07-29T23:20:55.148Z,71.49
2017-07-29T23:23:29.811Z,71.61
2017-07-29T23:26:04.404Z,72.58
2017-07-29T23:28:39.146Z,72.91
2017-07-29T23:31:13.987Z,72.16
2017-07-29T23:33:48.385Z,71.85
2017-07-29T23:36:23.559Z,72.26
2017-07-29T23:38:59.147Z,72.72
2017-07-29T23:41:33.726Z,71.98
2017-07-29T23:44:08.410Z,71.62
2017-07-29T23:46:43.166Z,71.71
2017-07-29T23:49:18.839Z,72.15
2017-07-29T23:51:53.538Z,72.46
2017-07-29T23:54:27.954Z,73.06
2017-07-29T23:57:02.859Z,72.94
2017-07-29T23:59:37.616Z,73.48
